Time;durP1;ratioP1;P1;durP2;ratioP2;P2;SDS_P1;SDS_P2;PMS_P1;PMS_P2;Temp;Humidity;BMP_temperature;BMP_pressure;BME280_temperature;BME280_humidity;BME280_pressure;Samples;Min_cycle;Max_cycle;Signal;HPM_P1;HPM_P2
2022/12/27 00:01:22;;;;;;;133.85;85.82;;;102.50;2227.20;;;;;;4939250;29;20031;-84
2022/12/27 00:03:49;;;;;;;163.82;102.85;;;77.70;2227.20;;;;;;4939779;29;20106;-86
2022/12/27 00:06:22;;;;;;;151.52;86.68;;;77.70;2227.20;;;;;;4940470;29;20042;-84
2022/12/27 00:09:19;;;;;;;176.93;104.30;;;77.70;2227.20;;;;;;4939449;29;20023;-86
2022/12/27 00:12:22;;;;;;;191.52;121.30;;;102.50;2227.20;;;;;;4938437;29;20047;-86
2022/12/27 00:19:16;;;;;;;191.05;108.90;;;77.60;2227.20;;;;;;4937484;29;20047;-85
2022/12/27 00:37:11;;;;;;;223.57;125.32;;;102.40;2227.20;;;;;;4941803;29;20050;-86
2022/12/27 00:39:39;;;;;;;153.48;93.82;;;102.40;2227.20;;;;;;4924022;29;20032;-88
2022/12/27 00:42:44;;;;;;;139.00;84.88;;;102.40;2227.20;;;;;;4927083;29;20027;-85
2022/12/27 00:45:26;;;;;;;152.52;91.20;;;77.70;2227.20;;;;;;4905090;29;20132;-85
2022/12/27 00:48:23;;;;;;;169.40;94.00;;;77.70;2227.20;;;;;;4877541;29;20068;-86
2022/12/27 00:51:21;;;;;;;161.32;90.60;;;77.60;2227.20;;;;;;4918719;29;20038;-85
2022/12/27 00:57:30;;;;;;;161.60;95.10;;;77.50;2227.20;;;;;;4925575;29;20822;-85
2022/12/27 01:00:41;;;;;;;253.13;146.25;;;77.40;2227.20;;;;;;4939944;29;20468;-83
2022/12/27 01:03:15;;;;;;;228.18;135.20;;;77.50;2227.20;;;;;;4941325;29;20110;-85
2022/12/27 01:05:51;;;;;;;170.63;105.33;;;77.50;2227.20;;;;;;4908164;29;20036;-86
2022/12/27 01:08:22;;;;;;;141.25;84.78;;;77.70;2227.20;;;;;;4924452;29;20305;-80
2022/12/27 01:10:52;;;;;;;125.55;79.22;;;77.70;2227.20;;;;;;4923894;29;20087;-81
2022/12/27 01:13:22;;;;;;;120.07;75.80;;;102.40;2227.20;;;;;;4923686;29;20036;-86
2022/12/27 01:15:48;;;;;;;131.80;78.90;;;77.70;2176.00;;;;;;4908015;29;20028;-86
2022/12/27 01:18:20;;;;;;;117.03;74.22;;;77.60;2227.20;;;;;;4940537;29;20058;-85
2022/12/27 01:20:51;;;;;;;156.77;91.32;;;77.60;2227.20;;;;;;4923814;29;20031;-87
2022/12/27 01:23:37;;;;;;;153.60;90.05;;;77.50;2227.20;;;;;;4915523;29;20399;-86
2022/12/27 01:26:12;;;;;;;124.32;77.97;;;77.50;2227.20;;;;;;4959106;29;20423;-86
2022/12/27 01:28:44;;;;;;;126.25;73.47;;;77.60;2227.20;;;;;;4942335;29;20114;-86
2022/12/27 01:31:13;;;;;;;132.27;76.20;;;77.70;2227.20;;;;;;4941928;29;20063;-87
2022/12/27 01:33:46;;;;;;;118.68;74.75;;;77.60;2227.20;;;;;;4947866;29;20102;-86
2022/12/27 01:36:18;;;;;;;120.53;73.22;;;77.70;2227.20;;;;;;4954430;28;20039;-86
2022/12/27 01:38:47;;;;;;;131.48;79.00;;;77.60;2227.20;;;;;;4974836;28;20047;-87
2022/12/27 01:44:53;;;;;;;134.38;82.40;;;77.40;2227.20;;;;;;4933474;29;20041;-85
2022/12/27 01:48:05;;;;;;;133.75;83.28;;;77.30;2227.20;;;;;;4930865;29;20090;-86
2022/12/27 01:50:59;;;;;;;143.65;84.80;;;77.30;2227.20;;;;;;4927533;29;20042;-85
2022/12/27 01:53:50;;;;;;;128.18;75.78;;;77.30;2227.20;;;;;;4959266;29;20058;-86
2022/12/27 01:56:44;;;;;;;113.47;60.95;;;77.20;2227.20;;;;;;4944341;29;20035;-84
2022/12/27 01:59:43;;;;;;;119.78;69.30;;;77.10;2227.20;;;;;;4953392;29;20037;-85
2022/12/27 02:02:18;;;;;;;;;;;77.10;2227.20;;;;;;4958121;29;20039;-87
2022/12/27 02:04:52;;;;;;;107.03;60.67;;;77.20;2227.20;;;;;;4940291;29;19913;-84
2022/12/27 02:07:48;;;;;;;103.80;61.00;;;77.10;2227.20;;;;;;4938000;29;20042;-86
2022/12/27 02:10:40;;;;;;;;;;;77.10;2227.20;;;;;;4958573;29;20448;-85
2022/12/27 02:13:08;;;;;;;127.90;74.63;;;77.10;2227.20;;;;;;4941166;29;20004;-84
2022/12/27 02:15:49;;;;;;;155.65;98.72;;;77.10;2227.20;;;;;;4924280;29;20035;-84
2022/12/27 02:18:42;;;;;;;124.65;73.60;;;76.90;2227.20;;;;;;4941539;29;20027;-85
2022/12/27 02:21:23;;;;;;;135.52;78.40;;;76.90;2227.20;;;;;;4941632;29;20071;-84
2022/12/27 02:24:20;;;;;;;117.40;71.53;;;76.90;2227.20;;;;;;4958879;29;20082;-84
2022/12/27 02:27:27;;;;;;;117.38;70.10;;;76.90;2227.20;;;;;;4942897;29;20038;-84
2022/12/27 02:30:20;;;;;;;118.85;66.93;;;76.80;2227.20;;;;;;4958650;29;20027;-84
2022/12/27 02:33:16;;;;;;;139.07;78.07;;;76.80;2227.20;;;;;;4942448;29;20047;-85
2022/12/27 02:36:13;;;;;;;156.55;82.95;;;76.80;2227.20;;;;;;4935365;29;20056;-85
2022/12/27 02:39:05;;;;;;;126.38;75.20;;;76.90;2227.20;;;;;;4937462;29;20036;-85
2022/12/27 02:54:41;;;;;;;170.63;94.22;;;76.90;2227.20;;;;;;4937760;29;20407;-85
2022/12/27 02:57:52;;;;;;;177.95;99.35;;;77.00;2227.20;;;;;;4913424;29;20071;-85
2022/12/27 03:03:49;;;;;;;135.75;78.95;;;77.20;2227.20;;;;;;4937666;29;20118;-86
2022/12/27 03:06:50;;;;;;;139.70;81.78;;;77.10;2227.20;;;;;;4938707;29;20380;-85
2022/12/27 03:15:53;;;;;;;168.32;93.00;;;77.10;2227.20;;;;;;4938144;29;20039;-86
2022/12/27 03:18:56;;;;;;;180.35;99.35;;;77.10;2227.20;;;;;;4936712;29;20023;-86
2022/12/27 03:27:44;;;;;;;128.25;75.70;;;77.10;2227.20;;;;;;4937182;29;20067;-86
2022/12/27 03:33:14;;;;;;;103.50;66.35;;;76.90;2227.20;;;;;;4938285;29;20119;-85
2022/12/27 03:38:46;;;;;;;;;;;52.10;2227.20;;;;;;4939780;29;20095;-84
2022/12/27 03:44:25;;;;;;;81.38;51.03;;;76.80;2227.20;;;;;;4937952;29;20116;-84
2022/12/27 03:46:55;;;;;;;86.47;55.80;;;76.80;2227.20;;;;;;4935992;29;20027;-84
2022/12/27 03:49:50;;;;;;;122.82;69.70;;;52.10;2227.20;;;;;;4936715;29;20123;-85
2022/12/27 03:52:30;;;;;;;95.97;53.55;;;52.10;2227.20;;;;;;4936558;29;20131;-84
2022/12/27 03:54:58;;;;;;;104.10;57.03;;;52.00;2227.20;;;;;;4937441;29;20054;-84
2022/12/27 03:57:26;;;;;;;122.82;65.18;;;51.90;2227.20;;;;;;4937378;29;20208;-84
2022/12/27 03:59:52;;;;;;;108.50;63.33;;;52.00;2227.20;;;;;;4937678;29;20023;-84
2022/12/27 04:02:20;;;;;;;127.25;76.72;;;51.90;2227.20;;;;;;4937773;29;20030;-84
2022/12/27 04:04:49;;;;;;;143.93;80.55;;;52.00;2227.20;;;;;;4938748;29;20039;-85
2022/12/27 04:07:16;;;;;;;103.55;61.60;;;52.10;2227.20;;;;;;4937043;29;20055;-84
2022/12/27 04:34:43;;;;;;;128.48;75.03;;;76.90;2227.20;;;;;;4937881;29;20075;-84
2022/12/27 04:37:18;;;;;;;145.60;81.53;;;76.90;2227.20;;;;;;4933944;29;20455;-83
2022/12/27 04:56:21;;;;;;;200.93;111.88;;;51.80;2227.20;;;;;;4938750;29;20488;-83
2022/12/27 05:04:22;;;;;;;204.63;120.97;;;51.90;2227.20;;;;;;4959601;29;20501;-83
2022/12/27 05:06:48;;;;;;;187.82;115.85;;;52.00;2227.20;;;;;;4923734;29;20443;-83
2022/12/27 05:14:45;;;;;;;155.68;93.28;;;52.00;2227.20;;;;;;4917043;29;20492;-84
2022/12/27 05:17:11;;;;;;;156.55;96.55;;;52.00;2227.20;;;;;;4919832;29;20119;-85
2022/12/27 05:19:39;;;;;;;205.15;110.22;;;51.70;2227.20;;;;;;4937627;29;20111;-83
2022/12/27 05:27:36;;;;;;;190.02;117.40;;;52.10;2227.20;;;;;;4937711;29;20514;-84
2022/12/27 05:30:02;;;;;;;174.80;104.38;;;52.10;2227.20;;;;;;4919202;29;20031;-84
2022/12/27 05:32:28;;;;;;;193.25;107.55;;;52.10;2227.20;;;;;;4923237;29;20023;-84
2022/12/27 05:34:54;;;;;;;222.68;126.25;;;76.80;2227.20;;;;;;4925234;29;20032;-84
2022/12/27 05:37:20;;;;;;;194.57;116.82;;;76.90;2227.20;;;;;;4928413;29;20031;-84
2022/12/27 05:39:46;;;;;;;167.80;102.03;;;76.80;2227.20;;;;;;4923822;29;20083;-80
2022/12/27 05:42:12;;;;;;;156.10;97.72;;;52.10;2227.20;;;;;;4923266;29;20040;-80
2022/12/27 05:44:38;;;;;;;135.70;88.55;;;52.00;2227.20;;;;;;4915055;29;20032;-83
2022/12/27 05:47:04;;;;;;;131.27;85.00;;;51.90;2227.20;;;;;;4946412;29;20399;-81
2022/12/27 05:49:29;;;;;;;134.48;80.55;;;52.00;2227.20;;;;;;4942843;29;20027;-81
2022/12/27 05:51:59;;;;;;;139.05;83.38;;;52.00;2227.20;;;;;;4959101;29;20107;-83
2022/12/27 05:54:26;;;;;;;104.30;68.28;;;52.00;2227.20;;;;;;4942293;29;20019;-84
2022/12/27 05:56:52;;;;;;;100.35;61.03;;;52.10;2227.20;;;;;;4941542;29;20077;-83
2022/12/27 05:59:19;;;;;;;124.38;79.13;;;76.80;2227.20;;;;;;4958685;29;20078;-84
2022/12/27 06:01:45;;;;;;;125.95;82.18;;;76.90;2227.20;;;;;;4941493;29;20035;-84
2022/12/27 06:04:11;;;;;;;134.57;84.20;;;76.90;2227.20;;;;;;4941034;29;20069;-84
2022/12/27 06:06:39;;;;;;;130.50;86.10;;;77.00;2227.20;;;;;;4941436;29;20083;-85
2022/12/27 06:09:04;;;;;;;138.57;91.53;;;77.00;2227.20;;;;;;4941545;29;20035;-84
2022/12/27 06:11:30;;;;;;;197.35;125.80;;;77.00;2227.20;;;;;;4941199;29;20035;-85
2022/12/27 06:13:56;;;;;;;230.70;147.35;;;77.10;2227.20;;;;;;4937760;29;20039;-84
2022/12/27 06:16:22;;;;;;;226.45;143.20;;;77.10;2227.20;;;;;;4921024;29;20036;-85
2022/12/27 06:18:48;;;;;;;230.40;148.65;;;77.10;2227.20;;;;;;4921285;29;20051;-84
2022/12/27 06:21:17;;;;;;;215.43;137.90;;;77.10;2227.20;;;;;;4907015;29;20039;-85
2022/12/27 06:23:44;;;;;;;202.50;129.38;;;77.00;2227.20;;;;;;4922921;29;20081;-84
2022/12/27 06:26:28;;;;;;;182.30;119.65;;;77.00;2227.20;;;;;;4922655;29;20444;-85
2022/12/27 06:28:56;;;;;;;194.80;124.10;;;77.00;2227.20;;;;;;4922285;29;20024;-83
2022/12/27 06:31:22;;;;;;;196.20;124.10;;;77.00;2227.20;;;;;;4922092;29;20074;-85
2022/12/27 06:33:51;;;;;;;235.02;137.98;;;51.70;2227.20;;;;;;4921585;29;20023;-84
2022/12/27 06:36:20;;;;;;;203.52;126.85;;;76.80;2227.20;;;;;;4921736;29;20500;-84
2022/12/27 06:38:46;;;;;;;138.43;86.45;;;52.10;2227.20;;;;;;4921815;29;20421;-83
2022/12/27 06:41:16;;;;;;;143.40;82.22;;;51.90;2227.20;;;;;;4905995;29;20516;-84
2022/12/27 06:43:42;;;;;;;183.25;103.72;;;52.00;2227.20;;;;;;4922099;29;20083;-84
2022/12/27 06:46:14;;;;;;;195.00;105.13;;;52.00;2227.20;;;;;;4925148;29;20031;-83
2022/12/27 06:48:40;;;;;;;205.27;107.05;;;52.00;2227.20;;;;;;4925480;29;20373;-84
2022/12/27 06:51:09;;;;;;;207.65;111.32;;;52.00;2227.20;;;;;;4922701;29;20047;-83
2022/12/27 06:53:36;;;;;;;228.15;122.78;;;52.10;2227.20;;;;;;4921775;29;20035;-83
2022/12/27 06:56:15;;;;;;;190.10;111.97;;;76.80;2227.20;;;;;;4922559;29;20060;-83
2022/12/27 06:58:41;;;;;;;248.20;142.80;;;76.80;2227.20;;;;;;4922351;29;20052;-84
2022/12/27 07:01:24;;;;;;;242.68;136.02;;;76.90;2227.20;;;;;;4923455;29;20108;-83
2022/12/27 07:03:52;;;;;;;243.48;125.15;;;76.80;2227.20;;;;;;4921897;29;20031;-83
2022/12/27 07:06:19;;;;;;;263.58;129.77;;;76.90;2227.20;;;;;;4909617;29;20039;-83
2022/12/27 07:08:46;;;;;;;231.52;126.18;;;76.90;2227.20;;;;;;4928259;29;20038;-83
2022/12/27 07:11:13;;;;;;;191.23;113.93;;;76.90;2227.20;;;;;;4909101;29;20052;-83
2022/12/27 07:13:42;;;;;;;172.25;105.47;;;77.00;2227.20;;;;;;4922666;29;20047;-83
2022/12/27 07:16:10;;;;;;;192.80;117.18;;;76.90;2227.20;;;;;;4921709;29;20036;-83
2022/12/27 07:18:36;;;;;;;257.35;136.85;;;77.00;2227.20;;;;;;4920919;29;20492;-83
2022/12/27 07:21:09;;;;;;;225.82;128.45;;;77.00;2227.20;;;;;;4921164;29;20041;-84
2022/12/27 07:23:35;;;;;;;;;;;77.10;2227.20;;;;;;4921631;29;20083;-84
2022/12/27 07:26:13;;;;;;;212.50;125.30;;;77.20;2227.20;;;;;;4920787;29;19907;-84
2022/12/27 07:28:39;;;;;;;258.60;151.73;;;77.30;2227.20;;;;;;4920562;29;20055;-84
2022/12/27 07:31:07;;;;;;;271.48;162.60;;;77.40;2227.20;;;;;;4920701;29;20035;-85
2022/12/27 07:33:34;;;;;;;318.42;198.10;;;77.50;2227.20;;;;;;4905045;29;20090;-85
2022/12/27 07:36:00;;;;;;;308.98;192.10;;;77.70;2227.20;;;;;;4920182;29;20478;-87
2022/12/27 07:38:27;;;;;;;306.73;201.43;;;77.70;2227.20;;;;;;4924977;28;20008;-85
2022/12/27 07:40:53;;;;;;;305.17;198.70;;;102.50;2227.20;;;;;;4938974;29;20039;-85
2022/12/27 07:43:18;;;;;;;334.70;218.48;;;102.60;2227.20;;;;;;4922474;29;20032;-86
2022/12/27 07:45:44;;;;;;;374.52;238.05;;;102.60;2227.20;;;;;;4921034;29;20050;-86
2022/12/27 07:48:10;;;;;;;378.55;239.95;;;102.60;2227.20;;;;;;4920794;29;20361;-85
2022/12/27 07:50:36;;;;;;;337.17;228.43;;;102.70;2227.20;;;;;;4920307;29;20544;-85
2022/12/27 07:53:02;;;;;;;318.50;227.25;;;102.80;2227.20;;;;;;4920545;29;20465;-87
2022/12/27 07:55:28;;;;;;;200.63;133.10;;;102.80;2227.20;;;;;;4920486;29;20046;-88
2022/12/27 07:57:54;;;;;;;177.82;117.53;;;102.80;2227.20;;;;;;4920347;29;20056;-86
2022/12/27 08:00:19;;;;;;;159.27;104.15;;;102.90;2227.20;;;;;;4917356;29;20119;-87
2022/12/27 08:02:46;;;;;;;157.30;106.45;;;103.00;2227.20;;;;;;4916631;29;20391;-87
2022/12/27 08:05:12;;;;;;;151.50;102.35;;;103.00;2227.20;;;;;;4916748;29;20091;-86
2022/12/27 08:07:39;;;;;;;147.65;104.47;;;103.10;2227.20;;;;;;4901322;29;20632;-85
2022/12/27 08:10:06;;;;;;;135.07;94.45;;;103.10;2227.20;;;;;;4917125;29;20072;-87
2022/12/27 08:12:32;;;;;;;121.97;82.03;;;103.30;2227.20;;;;;;4916536;29;20084;-86
2022/12/27 08:14:59;;;;;;;115.45;77.50;;;128.00;2252.80;;;;;;4901587;29;20408;-88
2022/12/27 08:17:26;;;;;;;130.68;89.63;;;128.10;2252.80;;;;;;4916591;29;20069;-87
2022/12/27 08:19:52;;;;;;;116.20;83.30;;;128.10;2252.80;;;;;;4917030;29;20028;-87
2022/12/27 08:22:19;;;;;;;108.63;71.90;;;128.30;2252.80;;;;;;4917050;29;20388;-86
2022/12/27 08:24:44;;;;;;;142.18;96.15;;;128.30;2252.80;;;;;;4916521;29;20028;-87
2022/12/27 08:27:11;;;;;;;158.43;107.60;;;128.40;2252.80;;;;;;4916919;29;20452;-86
2022/12/27 08:29:37;;;;;;;151.57;101.22;;;128.40;2252.80;;;;;;4916692;29;20039;-87
2022/12/27 08:32:04;;;;;;;138.63;98.60;;;128.50;2252.80;;;;;;4916435;29;20063;-87
2022/12/27 08:34:30;;;;;;;143.80;98.43;;;128.50;2252.80;;;;;;4931281;29;20056;-86
2022/12/27 08:36:55;;;;;;;136.45;95.88;;;128.50;2252.80;;;;;;4935710;29;20569;-85
2022/12/27 08:39:21;;;;;;;144.90;99.78;;;128.60;2252.80;;;;;;4935335;29;20495;-87
2022/12/27 08:41:48;;;;;;;156.73;102.20;;;128.60;2252.80;;;;;;4935610;29;20031;-90
2022/12/27 08:44:14;;;;;;;172.73;114.25;;;128.60;2252.80;;;;;;4935563;29;20051;-86
2022/12/27 08:46:41;;;;;;;132.98;89.57;;;128.70;2252.80;;;;;;4935124;29;20114;-87
2022/12/27 08:49:06;;;;;;;118.97;86.00;;;128.70;2252.80;;;;;;4935172;29;20028;-86
2022/12/27 08:51:32;;;;;;;126.13;88.70;;;128.80;2252.80;;;;;;4935284;29;20601;-87
2022/12/27 08:53:58;;;;;;;117.53;78.75;;;128.80;2252.80;;;;;;4935225;29;20055;-87
2022/12/27 08:56:24;;;;;;;109.70;75.05;;;128.90;2252.80;;;;;;4935545;29;20050;-85
2022/12/27 08:58:49;;;;;;;107.22;69.75;;;128.80;2252.80;;;;;;4935409;29;20054;-87
2022/12/27 09:01:16;;;;;;;100.38;68.80;;;128.90;2252.80;;;;;;4952681;28;20058;-86
2022/12/27 09:03:41;;;;;;;103.68;72.13;;;128.90;2252.80;;;;;;4925705;29;20458;-86
2022/12/27 09:06:14;;;;;;;97.97;67.28;;;128.90;2252.80;;;;;;4920143;29;20141;-83
2022/12/27 09:08:40;;;;;;;;;;;153.60;2252.80;;;;;;4919632;29;20095;-83
2022/12/27 09:11:19;;;;;;;124.47;85.63;;;153.70;2252.80;;;;;;4917997;29;19914;-79
2022/12/27 09:13:44;;;;;;;128.20;89.28;;;153.80;2252.80;;;;;;4928492;29;20476;-78
2022/12/27 09:16:13;;;;;;;152.07;101.88;;;153.90;2252.80;;;;;;4941852;29;20031;-77
2022/12/27 09:18:40;;;;;;;143.88;100.97;;;154.00;2252.80;;;;;;4940574;29;20039;-82
2022/12/27 09:21:11;;;;;;;171.23;119.40;;;154.00;2252.80;;;;;;4940684;29;20027;-79
2022/12/27 09:23:38;;;;;;;212.77;145.50;;;154.10;2252.80;;;;;;4941889;29;20428;-83
2022/12/27 09:26:09;;;;;;;201.00;142.40;;;154.20;2252.80;;;;;;4938694;29;20027;-82
2022/12/27 09:28:35;;;;;;;189.13;130.43;;;154.40;2252.80;;;;;;4940629;29;20507;-84
2022/12/27 09:31:01;;;;;;;176.05;124.65;;;154.40;2252.80;;;;;;4939348;29;20027;-85
2022/12/27 09:33:28;;;;;;;180.63;125.40;;;154.50;2252.80;;;;;;4936400;29;20034;-83
2022/12/27 09:36:00;;;;;;;175.48;120.22;;;179.30;2252.80;;;;;;4941097;29;20031;-86
2022/12/27 09:38:26;;;;;;;159.65;114.18;;;179.30;2252.80;;;;;;4941009;29;20031;-82
2022/12/27 09:40:58;;;;;;;184.73;126.38;;;179.40;2252.80;;;;;;4935802;29;20078;-84
2022/12/27 09:43:40;;;;;;;153.35;111.30;;;179.60;2252.80;;;;;;4937387;29;20134;-82
2022/12/27 09:46:13;;;;;;;154.35;107.15;;;179.80;2252.80;;;;;;4933387;29;20122;-82
2022/12/27 09:48:40;;;;;;;140.90;101.28;;;179.90;2252.80;;;;;;4932409;29;20031;-83
2022/12/27 09:51:24;;;;;;;120.97;81.95;;;180.10;2252.80;;;;;;4934025;29;20486;-82
2022/12/27 09:53:59;;;;;;;87.45;60.78;;;205.10;2252.80;;;;;;4934066;29;20031;-82
2022/12/27 09:56:29;;;;;;;70.40;46.85;;;205.50;2252.80;;;;;;4938164;29;20063;-85
2022/12/27 09:59:04;;;;;;;60.92;42.10;;;205.70;2252.80;;;;;;4940923;29;20031;-81
2022/12/27 10:01:43;;;;;;;56.08;37.92;;;230.60;2252.80;;;;;;4957789;29;20125;-81
2022/12/27 10:04:12;;;;;;;89.90;58.25;;;230.70;2252.80;;;;;;4937710;29;20028;-82
2022/12/27 10:06:50;;;;;;;65.28;42.92;;;230.80;2252.80;;;;;;4937761;29;20031;-84
2022/12/27 10:09:42;;;;;;;97.10;68.15;;;230.90;2252.80;;;;;;4941297;29;20033;-78
2022/12/27 10:12:54;;;;;;;68.75;46.15;;;231.00;2252.80;;;;;;4941344;29;20031;-80
2022/12/27 10:15:32;;;;;;;86.70;58.00;;;231.10;2252.80;;;;;;4929936;29;20042;-84
2022/12/27 10:18:17;;;;;;;100.40;69.53;;;231.20;2252.80;;;;;;4976482;28;20059;-80
2022/12/27 10:21:12;;;;;;;109.30;77.82;;;231.20;2252.80;;;;;;4928407;29;20038;-82
2022/12/27 10:23:43;;;;;;;102.57;69.43;;;231.30;2252.80;;;;;;4929819;29;20043;-83
2022/12/27 10:26:17;;;;;;;116.45;77.57;;;256.00;2252.80;;;;;;4940420;29;20035;-84
2022/12/27 10:28:46;;;;;;;147.23;103.07;;;256.20;2252.80;;;;;;4920615;29;20114;-79
2022/12/27 10:31:16;;;;;;;156.77;110.75;;;256.30;2124.80;;;;;;4919533;29;20079;-81
2022/12/27 10:33:43;;;;;;;161.88;109.05;;;256.40;2252.80;;;;;;4937235;29;20019;-85
2022/12/27 10:36:13;;;;;;;114.90;77.47;;;256.50;2099.20;;;;;;4919813;29;20082;-81
2022/12/27 10:38:38;;;;;;;120.28;83.85;;;256.50;2252.80;;;;;;4919833;29;20130;-81
2022/12/27 10:41:35;;;;;;;124.68;91.97;;;256.60;2252.80;;;;;;4921181;29;20123;-80
2022/12/27 10:44:01;;;;;;;137.18;102.20;;;256.80;2252.80;;;;;;4921289;29;20424;-80
2022/12/27 10:46:31;;;;;;;166.30;124.10;;;256.90;2252.80;;;;;;4938479;29;20028;-83
2022/12/27 10:49:04;;;;;;;205.82;147.77;;;256.90;2252.80;;;;;;4921446;29;20035;-80
2022/12/27 10:51:37;;;;;;;;;;;256.90;2252.80;;;;;;4938312;29;20055;-82
2022/12/27 10:54:27;;;;;;;185.68;124.75;;;281.60;2278.40;;;;;;4938438;29;20305;-82
2022/12/27 10:56:54;;;;;;;135.82;96.00;;;281.60;2278.40;;;;;;4921238;29;20472;-82
2022/12/27 10:59:25;;;;;;;97.45;67.97;;;281.70;2278.40;;;;;;4937047;29;20032;-81
2022/12/27 11:02:15;;;;;;;101.65;70.38;;;281.70;2278.40;;;;;;4901303;29;20036;-81
2022/12/27 11:04:56;;;;;;;75.93;56.08;;;281.80;2278.40;;;;;;4901445;29;20445;-82
2022/12/27 11:07:28;;;;;;;98.00;68.35;;;281.80;2278.40;;;;;;4917934;29;20028;-79
2022/12/27 11:10:06;;;;;;;102.53;66.43;;;281.90;2278.40;;;;;;4901321;29;20465;-82
2022/12/27 11:12:32;;;;;;;97.28;63.88;;;282.00;2278.40;;;;;;4900896;29;20031;-80
2022/12/27 11:15:16;;;;;;;91.30;65.15;;;282.00;2278.40;;;;;;4900936;29;20040;-82
2022/12/27 11:17:44;;;;;;;90.32;62.00;;;282.10;2278.40;;;;;;4917853;29;20485;-82
2022/12/27 11:20:29;;;;;;;80.85;53.10;;;282.20;2278.40;;;;;;4900398;29;20029;-84
2022/12/27 11:23:09;;;;;;;50.88;40.13;;;282.20;2278.40;;;;;;4918419;29;20033;-81
2022/12/27 11:25:49;;;;;;;57.25;41.15;;;282.30;2278.40;;;;;;4900850;29;20540;-81
2022/12/27 11:28:32;;;;;;;55.03;38.40;;;282.30;2278.40;;;;;;4900773;29;20035;-84
2022/12/27 11:31:01;;;;;;;53.95;38.05;;;282.40;2278.40;;;;;;4900730;29;20032;-83
2022/12/27 11:33:53;;;;;;;29.48;21.40;;;282.40;2278.40;;;;;;4917375;29;20032;-83
2022/12/27 11:36:40;;;;;;;39.83;28.15;;;282.40;2278.40;;;;;;4903132;29;20107;-85
2022/12/27 11:39:07;;;;;;;40.80;28.70;;;282.50;2278.40;;;;;;4900654;29;20087;-81
2022/12/27 11:41:36;;;;;;;33.15;25.15;;;282.50;2278.40;;;;;;4898724;29;20080;-83
2022/12/27 11:44:15;;;;;;;40.80;29.23;;;307.20;2304.00;;;;;;4900180;29;20028;-78
2022/12/27 11:46:57;;;;;;;33.95;23.17;;;282.50;2278.40;;;;;;4900454;29;20028;-84
2022/12/27 11:49:29;;;;;;;24.67;16.60;;;282.50;2278.40;;;;;;4900427;29;20032;-83
2022/12/27 11:52:02;;;;;;;27.08;18.73;;;282.50;2278.40;;;;;;4908150;29;20082;-81
2022/12/27 11:54:43;;;;;;;50.70;35.25;;;282.50;2278.40;;;;;;4919891;29;20036;-84
2022/12/27 11:57:27;;;;;;;31.70;22.17;;;282.50;2278.40;;;;;;4899769;29;20038;-84
2022/12/27 12:00:16;;;;;;;33.33;21.88;;;282.50;2278.40;;;;;;4875503;29;1205558;-82
2022/12/27 12:02:42;;;;;;;21.88;16.40;;;282.40;2278.40;;;;;;4901370;29;20032;-81
2022/12/27 12:05:30;;;;;;;22.52;15.88;;;282.40;2278.40;;;;;;4901186;29;20499;-83
2022/12/27 12:08:02;;;;;;;22.15;15.73;;;282.40;2278.40;;;;;;4920129;29;20038;-84
2022/12/27 12:10:50;;;;;;;21.63;16.23;;;282.40;2278.40;;;;;;4935833;29;20035;-86
2022/12/27 12:13:16;;;;;;;26.95;17.70;;;282.20;2278.40;;;;;;4919035;29;20027;-81
2022/12/27 12:15:57;;;;;;;33.20;20.42;;;282.30;2278.40;;;;;;4936625;29;20531;-81
2022/12/27 12:18:35;;;;;;;29.52;18.60;;;282.20;2278.40;;;;;;4917788;29;20036;-82
2022/12/27 12:21:07;;;;;;;28.38;20.02;;;282.20;2278.40;;;;;;4936449;29;20035;-82
2022/12/27 12:23:52;;;;;;;35.35;22.13;;;282.10;2278.40;;;;;;4918533;29;20544;-82
2022/12/27 12:26:23;;;;;;;43.97;26.80;;;282.10;2278.40;;;;;;4936977;29;20185;-79
2022/12/27 12:29:18;;;;;;;35.47;24.48;;;282.10;2278.40;;;;;;4936797;29;20024;-83
2022/12/27 12:31:55;;;;;;;33.05;22.40;;;282.10;2278.40;;;;;;4919677;29;20118;-84
2022/12/27 12:34:39;;;;;;;96.65;67.68;;;282.10;2278.40;;;;;;4902499;29;20032;-81
2022/12/27 12:37:16;;;;;;;48.70;38.78;;;282.00;2278.40;;;;;;4904712;29;20032;-82
2022/12/27 12:39:48;;;;;;;40.22;29.63;;;282.10;2278.40;;;;;;4900700;29;20126;-82
2022/12/27 12:42:29;;;;;;;37.03;28.43;;;282.00;2278.40;;;;;;4900622;29;20051;-82
2022/12/27 12:44:55;;;;;;;40.28;28.13;;;282.00;2278.40;;;;;;4905207;29;20032;-82
2022/12/27 12:47:29;;;;;;;47.63;35.13;;;282.10;2278.40;;;;;;4908530;29;20048;-82
2022/12/27 12:50:53;;;;;;;49.58;30.80;;;282.10;2278.40;;;;;;4913493;29;20469;-83
2022/12/27 12:53:44;;;;;;;36.90;27.95;;;282.00;2278.40;;;;;;4810835;29;20031;-84
2022/12/27 12:56:57;;;;;;;42.42;29.15;;;282.00;2278.40;;;;;;4806567;29;20042;-81
2022/12/27 12:59:33;;;;;;;47.22;35.50;;;282.00;2278.40;;;;;;4895662;29;20037;-84
2022/12/27 13:02:22;;;;;;;57.88;41.90;;;282.00;2278.40;;;;;;4909461;29;20035;-82
2022/12/27 13:05:22;;;;;;;53.22;37.90;;;282.00;2278.40;;;;;;4912540;29;20091;-83
2022/12/27 13:08:22;;;;;;;48.25;35.75;;;282.00;2278.40;;;;;;4898770;29;20040;-81
2022/12/27 13:11:01;;;;;;;58.15;42.55;;;282.00;2278.40;;;;;;4909939;29;20039;-82
2022/12/27 13:13:42;;;;;;;73.18;50.03;;;282.00;2278.40;;;;;;4910288;29;20031;-82
2022/12/27 13:16:23;;;;;;;81.38;54.20;;;282.00;2278.40;;;;;;4910344;29;20498;-82
2022/12/27 13:19:48;;;;;;;63.88;45.85;;;282.00;2278.40;;;;;;4924175;29;20039;-82
2022/12/27 13:22:35;;;;;;;77.03;55.00;;;282.00;2278.40;;;;;;4862587;29;20026;-84
2022/12/27 13:25:37;;;;;;;73.78;52.28;;;281.90;2278.40;;;;;;4858567;29;20057;-82
2022/12/27 13:28:27;;;;;;;81.70;59.85;;;281.90;2278.40;;;;;;4899394;29;20032;-83
2022/12/27 13:31:16;;;;;;;99.82;65.75;;;281.80;2278.40;;;;;;4916882;29;20028;-84
2022/12/27 13:34:07;;;;;;;105.63;70.28;;;281.80;2278.40;;;;;;4899914;29;20036;-84
2022/12/27 13:36:55;;;;;;;111.70;73.25;;;281.80;2278.40;;;;;;4900167;29;20036;-85
2022/12/27 13:39:58;;;;;;;107.30;66.63;;;281.80;2278.40;;;;;;4916948;29;20033;-83
2022/12/27 13:42:40;;;;;;;90.13;59.42;;;281.80;2278.40;;;;;;4917290;29;20111;-84
2022/12/27 13:45:20;;;;;;;150.88;104.00;;;281.80;2278.40;;;;;;4900066;29;20037;-85
2022/12/27 13:48:20;;;;;;;154.38;103.15;;;281.80;2278.40;;;;;;4899808;29;20037;-81
2022/12/27 13:51:09;;;;;;;129.88;91.78;;;281.70;2278.40;;;;;;4899919;29;20115;-81
2022/12/27 13:53:40;;;;;;;104.95;70.68;;;281.60;2278.40;;;;;;4861471;29;20040;-79
2022/12/27 13:56:26;;;;;;;113.00;74.80;;;281.70;2278.40;;;;;;4899545;29;20032;-81
2022/12/27 13:59:19;;;;;;;151.55;102.30;;;281.70;2278.40;;;;;;4899757;29;20039;-77
2022/12/27 14:02:12;;;;;;;138.70;93.78;;;281.60;2278.40;;;;;;4935027;29;20047;-83
2022/12/27 14:04:59;;;;;;;175.50;113.88;;;281.60;2278.40;;;;;;4921791;29;20087;-81
2022/12/27 14:07:43;;;;;;;172.48;109.70;;;281.60;1920.00;;;;;;4939400;29;20744;-82
2022/12/27 14:10:43;;;;;;;138.35;93.75;;;281.60;2176.00;;;;;;4939175;29;20087;-83
2022/12/27 14:13:10;;;;;;;86.93;57.00;;;256.90;2252.80;;;;;;4939024;29;20123;-81
2022/12/27 14:15:54;;;;;;;84.85;51.97;;;256.80;2252.80;;;;;;4921765;29;20027;-84
2022/12/27 14:18:38;;;;;;;67.97;44.53;;;256.70;2252.80;;;;;;4922137;29;20067;-86
2022/12/27 14:22:03;;;;;;;65.82;42.08;;;256.60;2252.80;;;;;;4922078;29;20091;-87
2022/12/27 14:24:50;;;;;;;156.05;106.47;;;256.50;2252.80;;;;;;4846167;29;20551;-83
2022/12/27 14:27:47;;;;;;;161.43;112.75;;;256.50;2252.80;;;;;;4846287;29;20034;-83
2022/12/27 14:30:37;;;;;;;132.57;91.88;;;256.50;2252.80;;;;;;4936916;29;20039;-80
2022/12/27 14:33:03;;;;;;;97.55;64.13;;;256.50;2252.80;;;;;;4922929;29;20031;-81
2022/12/27 14:35:55;;;;;;;81.65;50.10;;;256.50;2201.60;;;;;;4922307;29;20083;-82
2022/12/27 14:38:42;;;;;;;60.40;40.30;;;256.50;2252.80;;;;;;4921855;29;20071;-84
2022/12/27 14:41:10;;;;;;;50.80;35.22;;;256.50;2252.80;;;;;;4921849;29;20496;-85
2022/12/27 14:43:39;;;;;;;60.53;39.30;;;256.50;2252.80;;;;;;4938408;29;20027;-84